createdAt,value
2018-01-29T00:00:24.652Z,3.55
2018-01-29T00:01:31.167Z,3.60
2018-01-29T00:02:36.909Z,3.70
2018-01-29T00:03:42.642Z,3.83
2018-01-29T00:04:48.396Z,3.70
2018-01-29T00:05:54.176Z,2.97
2018-01-29T00:07:00.696Z,3.70
2018-01-29T00:08:06.450Z,3.37
2018-01-29T00:09:12.188Z,3.45
2018-01-29T00:10:17.925Z,3.47
2018-01-29T00:11:23.695Z,3.78
2018-01-29T00:12:30.932Z,3.40
2018-01-29T00:13:36.656Z,3.12
2018-01-29T00:14:43.198Z,3.15
2018-01-29T00:15:48.939Z,4.30
2018-01-29T00:16:54.706Z,3.45
2018-01-29T00:18:00.218Z,3.20
2018-01-29T00:19:06.384Z,3.60
2018-01-29T00:20:12.175Z,3.78
2018-01-29T00:21:18.203Z,3.58
2018-01-29T00:22:23.975Z,3.50
2018-01-29T00:23:30.468Z,3.50
2018-01-29T00:24:36.216Z,3.40
2018-01-29T00:25:41.962Z,3.33
2018-01-29T00:26:47.692Z,2.40
2018-01-29T00:27:53.160Z,3.62
2018-01-29T00:28:58.911Z,3.37
2018-01-29T00:30:04.762Z,3.67
2018-01-29T00:31:12.048Z,3.30
2018-01-29T00:32:17.978Z,3.05
2018-01-29T00:33:23.755Z,3.80
2018-01-29T00:34:30.271Z,2.95
2018-01-29T00:35:36.067Z,3.40
2018-01-29T00:36:41.814Z,3.30
2018-01-29T00:37:47.540Z,2.90
2018-01-29T00:38:54.079Z,3.20
2018-01-29T00:40:00.688Z,2.55
2018-01-29T00:41:06.439Z,2.97
2018-01-29T00:42:12.296Z,2.65
2018-01-29T00:43:18.047Z,2.72
2018-01-29T00:44:24.657Z,2.30
2018-01-29T00:45:30.059Z,2.33
2018-01-29T00:46:35.797Z,2.40
2018-01-29T00:47:41.363Z,2.60
2018-01-29T00:48:47.848Z,2.42
2018-01-29T00:49:53.632Z,2.58
2018-01-29T00:51:00.911Z,2.70
2018-01-29T00:52:06.316Z,3.20
2018-01-29T00:53:12.105Z,3.15
2018-01-29T00:54:18.629Z,3.00
2018-01-29T00:55:24.407Z,2.60
2018-01-29T00:56:30.915Z,2.20
2018-01-29T00:57:36.703Z,2.45
2018-01-29T00:58:42.580Z,3.12
2018-01-29T00:59:48.381Z,2.72
2018-01-29T01:00:54.336Z,2.83
2018-01-29T01:02:00.066Z,2.97
2018-01-29T01:03:05.810Z,2.80
2018-01-29T01:04:13.070Z,2.90
2018-01-29T01:05:18.850Z,2.90
2018-01-29T01:06:24.721Z,2.53
2018-01-29T01:07:31.137Z,3.10
2018-01-29T01:08:37.132Z,2.80
2018-01-29T01:09:42.856Z,3.25
2018-01-29T01:10:48.657Z,2.47
2018-01-29T01:11:54.285Z,3.00
2018-01-29T01:13:00.032Z,2.50
2018-01-29T01:14:05.768Z,2.58
2018-01-29T01:15:11.508Z,2.62
2018-01-29T01:16:17.236Z,2.80
2018-01-29T01:17:23.025Z,2.72
2018-01-29T01:18:28.815Z,2.50
2018-01-29T01:19:34.552Z,2.40
2018-01-29T01:20:39.729Z,2.55
2018-01-29T01:21:46.239Z,2.65
2018-01-29T01:22:52.012Z,2.50
2018-01-29T01:23:58.522Z,2.50
2018-01-29T01:25:04.042Z,3.10
2018-01-29T01:26:09.793Z,2.90
2018-01-29T01:27:15.586Z,2.58
2018-01-29T01:28:22.113Z,2.55
2018-01-29T01:29:27.704Z,2.25
2018-01-29T01:30:34.218Z,2.20
2018-01-29T01:31:39.976Z,2.70
2018-01-29T01:32:45.700Z,4.05
2018-01-29T01:33:51.460Z,2.00
2018-01-29T01:34:57.295Z,2.42
2018-01-29T01:36:03.048Z,2.55
2018-01-29T01:37:08.807Z,2.22
2018-01-29T01:38:15.361Z,2.70
2018-01-29T01:39:21.121Z,2.60
2018-01-29T01:40:27.686Z,2.80
2018-01-29T01:41:34.203Z,2.58
2018-01-29T01:42:39.938Z,2.78
2018-01-29T01:43:45.476Z,2.40
2018-01-29T01:44:51.266Z,2.60
2018-01-29T01:45:57.833Z,2.72
2018-01-29T01:47:03.566Z,2.72
2018-01-29T01:48:10.129Z,2.87
2018-01-29T01:49:16.040Z,3.22
2018-01-29T01:50:21.795Z,2.90
2018-01-29T01:51:27.548Z,2.70
2018-01-29T01:52:34.110Z,2.53
2018-01-29T01:53:40.623Z,2.62
2018-01-29T01:54:46.367Z,2.67
2018-01-29T01:55:52.119Z,2.90
2018-01-29T01:56:57.906Z,2.75
2018-01-29T01:58:03.652Z,2.85
2018-01-29T01:59:10.175Z,2.92
2018-01-29T02:00:15.591Z,2.92
2018-01-29T02:01:21.351Z,3.53
2018-01-29T02:02:27.100Z,2.47
2018-01-29T02:03:32.838Z,2.75
2018-01-29T02:04:38.581Z,2.85
2018-01-29T02:05:45.100Z,2.85
2018-01-29T02:06:50.872Z,4.10
2018-01-29T02:07:56.659Z,3.60
2018-01-29T02:09:02.412Z,3.70
2018-01-29T02:10:08.180Z,3.20
2018-01-29T02:11:13.900Z,2.75
2018-01-29T02:12:19.759Z,3.20
2018-01-29T02:13:25.525Z,3.30
2018-01-29T02:14:31.291Z,4.05
2018-01-29T02:15:37.780Z,2.72
2018-01-29T02:16:43.531Z,4.10
2018-01-29T02:17:49.312Z,3.25
2018-01-29T02:18:55.041Z,3.50
2018-01-29T02:20:00.776Z,3.58
2018-01-29T02:21:06.543Z,3.08
2018-01-29T02:22:12.303Z,3.08
2018-01-29T02:23:18.923Z,3.20
2018-01-29T02:24:24.658Z,3.35
2018-01-29T02:25:30.442Z,2.85
2018-01-29T02:26:36.928Z,3.42
2018-01-29T02:27:42.671Z,3.03
2018-01-29T02:28:48.421Z,2.87
2018-01-29T02:29:54.171Z,2.65
2018-01-29T02:30:59.919Z,3.37
2018-01-29T02:32:05.680Z,2.90
2018-01-29T02:33:12.191Z,2.90
2018-01-29T02:34:18.006Z,3.10
2018-01-29T02:35:24.519Z,3.20
2018-01-29T02:36:30.057Z,3.08
2018-01-29T02:37:35.615Z,3.00
2018-01-29T02:38:42.129Z,2.35
2018-01-29T02:39:47.909Z,3.08
2018-01-29T02:40:53.659Z,3.33
2018-01-29T02:42:00.897Z,3.70
2018-01-29T02:43:06.646Z,3.10
2018-01-29T02:44:12.397Z,2.83
2018-01-29T02:45:18.052Z,2.53
2018-01-29T02:46:23.589Z,3.58
2018-01-29T02:47:29.344Z,3.35
2018-01-29T02:48:34.904Z,3.10
2018-01-29T02:49:40.652Z,3.67
2018-01-29T02:50:46.256Z,2.90
2018-01-29T02:51:52.582Z,3.42
2018-01-29T02:52:58.129Z,3.20
2018-01-29T02:54:03.669Z,3.20
2018-01-29T02:55:10.713Z,3.75
2018-01-29T02:56:16.295Z,3.45
2018-01-29T02:57:22.601Z,5.53
2018-01-29T02:58:28.136Z,3.25
2018-01-29T02:59:32.885Z,3.15
2018-01-29T03:00:38.608Z,2.70
2018-01-29T03:01:44.722Z,3.35
2018-01-29T03:02:50.463Z,3.65
2018-01-29T03:03:56.103Z,3.60
2018-01-29T03:05:01.875Z,3.40
2018-01-29T03:06:07.640Z,3.53
2018-01-29T03:07:13.388Z,3.67
2018-01-29T03:08:18.933Z,3.47
2018-01-29T03:09:24.670Z,3.55
2018-01-29T03:10:30.835Z,3.60
2018-01-29T03:11:37.354Z,2.92
2018-01-29T03:12:43.155Z,3.47
2018-01-29T03:13:48.879Z,3.83
2018-01-29T03:14:55.397Z,3.70
2018-01-29T03:16:01.168Z,3.90
2018-01-29T03:17:08.402Z,3.50
2018-01-29T03:18:14.168Z,2.90
2018-01-29T03:19:20.444Z,3.10
2018-01-29T03:20:26.173Z,3.10
2018-01-29T03:21:31.924Z,3.72
2018-01-29T03:22:37.681Z,3.58
2018-01-29T03:23:44.214Z,3.55
2018-01-29T03:24:49.937Z,2.78
2018-01-29T03:25:55.676Z,4.30
2018-01-29T03:27:01.422Z,3.85
2018-01-29T03:28:07.178Z,3.62
2018-01-29T03:29:12.944Z,3.20
2018-01-29T03:30:19.460Z,3.00
2018-01-29T03:31:25.221Z,3.50
2018-01-29T03:32:30.968Z,3.20
2018-01-29T03:33:36.688Z,3.53
2018-01-29T03:34:42.462Z,3.62
2018-01-29T03:35:48.951Z,2.72
2018-01-29T03:36:54.687Z,2.87
2018-01-29T03:38:00.489Z,3.67
2018-01-29T03:39:05.392Z,3.05
2018-01-29T03:40:11.160Z,3.92
2018-01-29T03:41:16.903Z,3.22
2018-01-29T03:42:23.400Z,3.60
2018-01-29T03:43:29.151Z,2.25
2018-01-29T03:44:35.327Z,2.67
2018-01-29T03:45:41.084Z,3.40
2018-01-29T03:46:46.812Z,3.00
2018-01-29T03:47:53.319Z,2.95
2018-01-29T03:48:59.044Z,3.10
2018-01-29T03:50:04.611Z,3.00
2018-01-29T03:51:11.135Z,2.53
2018-01-29T03:52:16.872Z,2.35
2018-01-29T03:53:22.618Z,2.08
2018-01-29T03:54:28.344Z,2.83
2018-01-29T03:55:34.091Z,2.95
2018-01-29T03:56:39.868Z,2.62
2018-01-29T03:57:46.380Z,2.62
2018-01-29T03:58:52.108Z,2.72
2018-01-29T03:59:57.885Z,2.10
2018-01-29T04:01:03.625Z,2.28
2018-01-29T04:02:09.395Z,2.80
2018-01-29T04:03:15.634Z,2.08
2018-01-29T04:04:22.892Z,1.85
2018-01-29T04:05:28.638Z,2.50
2018-01-29T04:06:34.423Z,1.83
2018-01-29T04:07:40.188Z,2.00
2018-01-29T04:08:45.934Z,2.20
2018-01-29T04:09:51.676Z,2.28
2018-01-29T04:10:57.434Z,1.92
2018-01-29T04:12:03.254Z,2.45
2018-01-29T04:13:09.035Z,1.83
2018-01-29T04:14:14.793Z,2.78
2018-01-29T04:15:20.578Z,2.22
2018-01-29T04:16:26.338Z,2.37
2018-01-29T04:17:32.083Z,2.90
2018-01-29T04:18:37.862Z,1.87
2018-01-29T04:19:44.375Z,2.25
2018-01-29T04:20:49.807Z,1.50
2018-01-29T04:21:55.547Z,2.25
2018-01-29T04:23:04.220Z,1.90
2018-01-29T04:24:10.747Z,2.00
2018-01-29T04:25:16.467Z,2.08
2018-01-29T04:26:23.113Z,2.00
2018-01-29T04:27:28.864Z,2.05
2018-01-29T04:28:34.888Z,1.80
2018-01-29T04:29:40.647Z,2.40
2018-01-29T04:30:46.396Z,2.40
2018-01-29T04:31:52.128Z,2.05
2018-01-29T04:32:57.876Z,1.65
2018-01-29T04:34:03.610Z,1.85
2018-01-29T04:35:10.146Z,1.60
2018-01-29T04:36:15.883Z,2.37
2018-01-29T04:37:21.717Z,2.10
2018-01-29T04:38:28.265Z,1.40
2018-01-29T04:39:34.850Z,1.73
2018-01-29T04:40:40.615Z,1.50
2018-01-29T04:41:46.345Z,1.70
2018-01-29T04:42:52.347Z,1.52
2018-01-29T04:43:59.161Z,1.45
2018-01-29T04:45:04.718Z,1.27
2018-01-29T04:46:13.660Z,1.33
2018-01-29T04:47:19.998Z,1.42
2018-01-29T04:48:25.728Z,1.30
2018-01-29T04:49:31.452Z,1.30
2018-01-29T04:50:37.215Z,1.33
2018-01-29T04:51:42.834Z,1.23
2018-01-29T04:52:48.399Z,1.58
2018-01-29T04:53:54.195Z,1.45
2018-01-29T04:54:59.968Z,1.23
2018-01-29T04:56:05.692Z,1.30
2018-01-29T04:57:11.466Z,1.45
2018-01-29T04:58:17.238Z,1.35
2018-01-29T04:59:23.732Z,1.45
2018-01-29T05:00:28.810Z,1.30
2018-01-29T05:01:36.084Z,1.30
2018-01-29T05:02:41.835Z,1.45
2018-01-29T05:03:47.581Z,0.90
2018-01-29T05:04:53.334Z,1.40
2018-01-29T05:05:59.850Z,1.60
2018-01-29T05:07:05.725Z,1.45
2018-01-29T05:08:12.253Z,1.08
2018-01-29T05:09:17.976Z,1.10
2018-01-29T05:10:23.794Z,0.90
2018-01-29T05:11:29.538Z,1.05
2018-01-29T05:12:35.282Z,1.02
2018-01-29T05:13:41.128Z,1.00
2018-01-29T05:14:47.059Z,1.75
2018-01-29T05:15:53.551Z,1.37
2018-01-29T05:16:59.275Z,1.23
2018-01-29T05:18:04.441Z,1.00
2018-01-29T05:19:10.281Z,1.00
2018-01-29T05:20:16.188Z,1.00
2018-01-29T05:21:21.912Z,0.90
2018-01-29T05:22:28.456Z,1.45
2018-01-29T05:23:34.202Z,1.00
2018-01-29T05:24:40.721Z,1.12
2018-01-29T05:25:46.683Z,0.88
2018-01-29T05:26:52.414Z,1.00
2018-01-29T05:27:58.148Z,1.00
2018-01-29T05:29:03.901Z,1.30
2018-01-29T05:30:09.675Z,0.90
2018-01-29T05:31:15.448Z,1.00
2018-01-29T05:32:21.170Z,1.30
2018-01-29T05:33:27.698Z,0.90
2018-01-29T05:34:34.766Z,0.90
2018-01-29T05:39:07.425Z,0.90
2018-01-29T05:40:13.148Z,0.80
2018-01-29T05:41:18.723Z,0.90
2018-01-29T05:42:24.263Z,0.95
2018-01-29T05:43:30.164Z,0.90
2018-01-29T05:44:35.813Z,0.75
2018-01-29T05:45:41.637Z,0.80
2018-01-29T05:46:48.217Z,0.73
2018-01-29T05:47:53.615Z,0.90
2018-01-29T05:48:59.147Z,0.70
2018-01-29T05:50:05.478Z,0.80
2018-01-29T05:51:10.494Z,0.93
2018-01-29T05:52:16.073Z,1.00
2018-01-29T05:53:22.580Z,0.60
2018-01-29T05:54:28.112Z,0.70
2018-01-29T05:55:33.862Z,0.60
2018-01-29T05:56:39.443Z,0.70
2018-01-29T05:57:45.459Z,0.70
2018-01-29T05:58:51.189Z,0.60
2018-01-29T05:59:56.927Z,0.60
2018-01-29T06:01:02.648Z,0.65
2018-01-29T06:02:08.384Z,0.68
2018-01-29T06:03:14.140Z,0.65
2018-01-29T06:04:19.677Z,0.70
2018-01-29T06:05:25.216Z,0.60
2018-01-29T06:06:30.959Z,0.85
2018-01-29T06:07:36.700Z,0.65
2018-01-29T06:08:42.473Z,0.70
2018-01-29T06:09:48.245Z,0.62
2018-01-29T06:10:54.728Z,0.73
2018-01-29T06:12:00.456Z,0.50
2018-01-29T06:13:06.188Z,0.80
2018-01-29T06:14:12.151Z,0.80
2018-01-29T06:15:17.917Z,0.65
2018-01-29T06:16:23.638Z,0.70
2018-01-29T06:17:29.378Z,1.05
2018-01-29T06:18:35.175Z,0.70
2018-01-29T06:19:40.943Z,0.70
2018-01-29T06:20:46.676Z,2.03
2018-01-29T06:21:53.169Z,2.10
2018-01-29T06:22:58.901Z,2.55
2018-01-29T06:24:04.647Z,1.10
2018-01-29T06:25:10.400Z,0.70
2018-01-29T06:26:16.147Z,1.08
2018-01-29T06:27:21.681Z,0.75
2018-01-29T06:28:27.431Z,0.93
2018-01-29T06:29:33.184Z,3.33
2018-01-29T06:30:38.947Z,0.95
2018-01-29T06:31:44.814Z,2.97
2018-01-29T06:32:51.108Z,0.90
2018-01-29T06:33:56.856Z,1.95
2018-01-29T06:35:02.601Z,6.30
2018-01-29T06:36:08.365Z,0.82
2018-01-29T06:37:14.476Z,1.00
2018-01-29T06:38:20.209Z,0.80
2018-01-29T06:39:25.944Z,1.25
2018-01-29T06:40:31.392Z,0.60
2018-01-29T06:41:37.158Z,5.10
2018-01-29T06:42:42.896Z,0.70
2018-01-29T06:43:48.638Z,0.80
2018-01-29T06:44:54.361Z,0.60
2018-01-29T06:46:00.089Z,0.70
2018-01-29T06:47:05.837Z,0.90
2018-01-29T06:48:11.567Z,0.77
2018-01-29T06:49:17.308Z,0.80
2018-01-29T06:50:23.037Z,0.60
2018-01-29T06:51:28.764Z,0.70
2018-01-29T06:52:35.024Z,0.60
2018-01-29T06:53:40.576Z,0.70
2018-01-29T06:54:46.311Z,0.60
2018-01-29T06:55:52.050Z,0.70
2018-01-29T06:56:57.767Z,0.62
2018-01-29T06:58:04.303Z,0.55
2018-01-29T06:59:11.619Z,0.95
2018-01-29T07:00:18.116Z,0.80
2018-01-29T07:01:23.205Z,0.70
2018-01-29T07:02:28.970Z,0.80
2018-01-29T07:03:34.729Z,0.60
2018-01-29T07:04:40.492Z,1.10
2018-01-29T07:05:46.231Z,0.60
2018-01-29T07:06:51.988Z,0.60
2018-01-29T07:07:57.733Z,0.70
2018-01-29T07:09:03.850Z,0.60
2018-01-29T07:10:09.576Z,0.70
2018-01-29T07:11:15.315Z,0.60
2018-01-29T07:12:21.076Z,0.82
2018-01-29T07:13:26.796Z,0.70
2018-01-29T07:14:32.544Z,0.70
2018-01-29T07:15:38.345Z,0.60
2018-01-29T07:16:44.847Z,0.50
2018-01-29T07:17:50.575Z,0.60
2018-01-29T07:18:56.102Z,0.70
2018-01-29T07:20:01.904Z,0.50
2018-01-29T07:21:09.142Z,0.57
2018-01-29T07:22:14.868Z,0.70
2018-01-29T07:23:20.590Z,0.60
2018-01-29T07:24:25.999Z,0.50
2018-01-29T07:25:32.538Z,0.50
2018-01-29T07:26:38.307Z,0.60
2018-01-29T07:27:44.804Z,0.60
2018-01-29T07:28:50.547Z,0.60
2018-01-29T07:29:56.276Z,0.45
2018-01-29T07:31:02.048Z,0.80
2018-01-29T07:32:07.782Z,0.55
2018-01-29T07:33:13.560Z,0.60
2018-01-29T07:34:19.477Z,0.50
2018-01-29T07:35:25.272Z,0.60
2018-01-29T07:36:31.803Z,0.57
2018-01-29T07:37:37.576Z,0.57
2018-01-29T07:38:43.312Z,0.50
2018-01-29T07:39:49.598Z,0.52
2018-01-29T07:40:55.353Z,0.60
2018-01-29T07:42:01.154Z,0.50
2018-01-29T07:43:07.513Z,0.40
2018-01-29T07:44:13.307Z,0.43
2018-01-29T07:45:18.719Z,0.50
2018-01-29T07:46:24.462Z,0.40
2018-01-29T07:47:30.230Z,0.52
2018-01-29T07:48:35.783Z,0.50
2018-01-29T07:49:41.531Z,0.60
2018-01-29T07:50:48.037Z,0.60
2018-01-29T07:51:53.756Z,0.50
2018-01-29T07:52:59.533Z,0.50
2018-01-29T07:54:05.665Z,0.50
2018-01-29T07:55:11.407Z,0.50
2018-01-29T07:56:17.156Z,0.60
2018-01-29T07:57:22.903Z,0.50
2018-01-29T07:58:28.867Z,0.70
2018-01-29T07:59:34.616Z,0.40
2018-01-29T08:00:40.340Z,0.50
2018-01-29T08:01:46.074Z,0.60
2018-01-29T08:02:51.862Z,0.57
2018-01-29T08:03:57.832Z,0.70
2018-01-29T08:05:03.248Z,0.50
2018-01-29T08:06:09.758Z,0.70
2018-01-29T08:07:15.504Z,0.70
2018-01-29T08:08:21.255Z,1.00
2018-01-29T08:09:27.024Z,0.60
2018-01-29T08:10:33.514Z,0.60
2018-01-29T08:11:39.262Z,0.60
2018-01-29T08:12:45.004Z,0.80
2018-01-29T08:13:50.743Z,0.50
2018-01-29T08:14:56.511Z,0.80
2018-01-29T08:16:02.263Z,1.80
2018-01-29T08:17:08.036Z,0.95
2018-01-29T08:18:13.858Z,0.60
2018-01-29T08:19:19.611Z,0.75
2018-01-29T08:20:26.161Z,0.55
2018-01-29T08:21:31.906Z,0.50
2018-01-29T08:22:38.415Z,0.40
2018-01-29T08:23:44.142Z,0.62
2018-01-29T08:24:49.860Z,0.62
2018-01-29T08:25:56.372Z,0.80
2018-01-29T08:27:02.093Z,0.75
2018-01-29T08:28:07.835Z,0.60
2018-01-29T08:29:13.574Z,0.50
2018-01-29T08:30:19.471Z,0.60
2018-01-29T08:31:25.222Z,0.50
2018-01-29T08:32:31.797Z,0.68
2018-01-29T08:33:38.300Z,0.70
2018-01-29T08:34:44.039Z,0.60
2018-01-29T08:35:49.805Z,0.65
2018-01-29T08:36:55.578Z,0.60
2018-01-29T08:38:01.350Z,0.60
2018-01-29T08:39:06.746Z,0.70
2018-01-29T08:40:13.286Z,0.57
2018-01-29T08:41:19.343Z,0.60
2018-01-29T08:42:25.100Z,0.60
2018-01-29T08:43:31.616Z,0.60
2018-01-29T08:44:37.350Z,0.80
2018-01-29T08:45:42.924Z,0.85
2018-01-29T08:46:49.264Z,0.55
2018-01-29T08:47:55.040Z,0.60
2018-01-29T08:49:01.558Z,0.60
2018-01-29T08:50:07.315Z,0.50
2018-01-29T08:51:13.064Z,0.50
2018-01-29T08:52:19.602Z,0.50
2018-01-29T08:53:25.223Z,0.60
2018-01-29T08:54:30.955Z,0.60
2018-01-29T08:55:36.707Z,0.60
2018-01-29T08:56:42.438Z,0.60
2018-01-29T08:57:48.157Z,0.80
2018-01-29T08:58:53.951Z,0.60
2018-01-29T08:59:59.707Z,1.10
2018-01-29T09:01:05.882Z,0.60
2018-01-29T09:02:11.627Z,0.62
2018-01-29T09:03:17.386Z,0.85
2018-01-29T09:04:23.156Z,0.60
2018-01-29T09:05:28.898Z,0.73
2018-01-29T09:06:34.683Z,0.50
2018-01-29T09:07:41.172Z,0.50
2018-01-29T09:08:46.953Z,0.60
2018-01-29T09:09:52.752Z,0.60
2018-01-29T09:10:58.505Z,0.60
2018-01-29T09:12:03.745Z,0.60
2018-01-29T09:13:09.501Z,0.60
2018-01-29T09:14:15.283Z,0.60
2018-01-29T09:15:21.839Z,0.80
2018-01-29T09:16:28.339Z,0.60
2018-01-29T09:17:33.885Z,0.60
2018-01-29T09:18:39.621Z,0.60
2018-01-29T09:19:45.362Z,0.68
2018-01-29T09:20:50.225Z,0.60
2018-01-29T09:21:56.717Z,0.80
2018-01-29T09:23:02.457Z,0.60
2018-01-29T09:24:08.181Z,0.50
2018-01-29T09:25:13.963Z,0.60
2018-01-29T09:26:19.744Z,0.60
2018-01-29T09:27:25.469Z,0.60
2018-01-29T09:28:31.222Z,0.70
2018-01-29T09:29:36.940Z,0.70
2018-01-29T09:30:42.727Z,0.80
2018-01-29T09:31:49.288Z,0.60
2018-01-29T09:32:55.812Z,0.60
2018-01-29T09:34:01.558Z,0.60
2018-01-29T09:35:07.317Z,0.52
2018-01-29T09:36:13.660Z,0.70
2018-01-29T09:37:20.189Z,0.50
2018-01-29T09:38:25.954Z,0.60
2018-01-29T09:39:31.421Z,0.60
2018-01-29T09:40:37.953Z,0.50
2018-01-29T09:41:44.465Z,0.80
2018-01-29T09:42:49.933Z,0.60
2018-01-29T09:43:55.661Z,0.60
2018-01-29T09:45:01.401Z,0.60
2018-01-29T09:46:07.132Z,0.93
2018-01-29T09:47:12.887Z,0.80
2018-01-29T09:48:18.596Z,0.70
2018-01-29T09:49:24.959Z,0.60
2018-01-29T09:50:30.500Z,0.70
2018-01-29T09:51:36.247Z,0.50
2018-01-29T09:52:41.998Z,0.52
2018-01-29T09:53:48.017Z,0.50
2018-01-29T09:54:54.340Z,0.60
2018-01-29T09:56:00.075Z,0.60
2018-01-29T09:57:05.820Z,0.60
2018-01-29T09:58:11.566Z,0.70
2018-01-29T09:59:17.327Z,0.60
2018-01-29T10:00:23.837Z,0.70
2018-01-29T10:01:29.587Z,0.60
2018-01-29T10:02:35.370Z,0.60
2018-01-29T10:03:41.877Z,0.60
2018-01-29T10:04:47.637Z,0.70
2018-01-29T10:05:53.198Z,0.60
2018-01-29T10:06:58.928Z,0.68
2018-01-29T10:08:04.507Z,0.65
2018-01-29T10:09:10.281Z,0.62
2018-01-29T10:10:15.600Z,0.60
2018-01-29T10:11:22.151Z,0.80
2018-01-29T10:12:28.470Z,0.60
2018-01-29T10:13:34.242Z,0.95
2018-01-29T10:14:40.155Z,0.70
2018-01-29T10:15:45.900Z,0.60
2018-01-29T10:16:51.646Z,0.70
2018-01-29T10:17:57.380Z,0.80
2018-01-29T10:19:03.113Z,0.80
2018-01-29T10:20:08.841Z,0.65
2018-01-29T10:21:14.611Z,0.62
2018-01-29T10:22:20.353Z,0.90
2018-01-29T10:23:26.132Z,0.60
2018-01-29T10:24:32.630Z,0.70
2018-01-29T10:25:37.813Z,0.68
2018-01-29T10:26:43.603Z,0.70
2018-01-29T10:27:49.335Z,0.75
2018-01-29T10:28:55.079Z,0.70
2018-01-29T10:29:59.951Z,0.80
2018-01-29T10:31:06.446Z,0.70
2018-01-29T10:32:12.232Z,0.70
2018-01-29T10:33:18.735Z,0.70
2018-01-29T10:34:24.489Z,0.80
2018-01-29T10:35:30.227Z,0.70
2018-01-29T10:36:35.960Z,0.60
2018-01-29T10:37:41.733Z,0.80
2018-01-29T10:38:47.295Z,0.73
2018-01-29T10:39:53.034Z,0.80
2018-01-29T10:40:58.783Z,0.70
2018-01-29T10:42:04.542Z,0.70
2018-01-29T10:43:11.084Z,0.80
2018-01-29T10:44:16.819Z,0.60
2018-01-29T10:45:23.513Z,1.23
2018-01-29T10:46:29.240Z,0.70
2018-01-29T10:47:35.760Z,1.27
2018-01-29T10:48:41.535Z,1.00
2018-01-29T10:49:47.275Z,0.90
2018-01-29T10:50:53.000Z,0.70
2018-01-29T10:51:58.724Z,0.90
2018-01-29T10:53:04.452Z,0.70
2018-01-29T10:54:10.208Z,0.70
2018-01-29T10:55:15.963Z,0.60
2018-01-29T10:56:20.820Z,0.70
2018-01-29T10:57:27.368Z,0.70
2018-01-29T10:58:33.128Z,0.80
2018-01-29T10:59:39.004Z,0.80
2018-01-29T11:00:50.115Z,0.80
2018-01-29T11:02:01.306Z,0.98
2018-01-29T11:03:07.046Z,0.60
2018-01-29T11:04:13.563Z,0.80
2018-01-29T11:05:19.109Z,0.68
2018-01-29T11:06:24.863Z,0.70
2018-01-29T11:07:30.607Z,0.60
2018-01-29T11:08:36.619Z,0.60
2018-01-29T11:10:45.802Z,0.70
2018-01-29T11:11:51.560Z,0.70
2018-01-29T11:12:58.071Z,0.60
2018-01-29T11:14:03.828Z,0.80
2018-01-29T11:15:09.568Z,0.70
2018-01-29T11:16:15.354Z,0.70
2018-01-29T11:17:21.143Z,0.80
2018-01-29T11:18:26.928Z,0.90
2018-01-29T11:19:32.491Z,0.60
2018-01-29T11:20:38.077Z,0.70
2018-01-29T11:21:44.672Z,0.55
2018-01-29T11:22:50.414Z,0.60
2018-01-29T11:23:56.164Z,0.62
2018-01-29T11:25:02.147Z,0.80
2018-01-29T11:26:07.887Z,0.80
2018-01-29T11:27:13.642Z,0.70
2018-01-29T11:28:19.211Z,0.60
2018-01-29T11:29:25.096Z,0.70
2018-01-29T11:30:29.958Z,0.60
2018-01-29T11:31:36.463Z,0.70
2018-01-29T11:32:42.258Z,0.60
2018-01-29T11:33:47.986Z,0.50
2018-01-29T11:34:53.752Z,0.95
2018-01-29T11:36:00.263Z,0.70
2018-01-29T11:37:06.019Z,0.70
2018-01-29T11:38:11.587Z,0.60
2018-01-29T11:39:18.090Z,0.68
2018-01-29T11:40:22.985Z,0.55
2018-01-29T11:41:28.712Z,1.00
2018-01-29T11:42:35.216Z,0.82
2018-01-29T11:43:41.000Z,0.82
2018-01-29T11:44:46.752Z,0.60
2018-01-29T11:45:52.496Z,0.75
2018-01-29T11:46:58.274Z,0.60
2018-01-29T11:48:04.087Z,0.60
2018-01-29T11:49:09.849Z,0.65
2018-01-29T11:50:16.645Z,0.80
2018-01-29T11:51:22.373Z,0.70
2018-01-29T11:52:28.439Z,0.80
2018-01-29T11:53:34.484Z,0.80
2018-01-29T11:54:40.272Z,0.70
2018-01-29T11:55:46.058Z,0.70
2018-01-29T11:56:51.803Z,0.70
2018-01-29T11:57:57.535Z,0.80
2018-01-29T11:59:04.086Z,0.60
2018-01-29T12:00:10.155Z,0.70
2018-01-29T12:01:15.898Z,0.68
2018-01-29T12:02:21.952Z,0.70
2018-01-29T12:03:27.703Z,0.90
2018-01-29T12:04:33.429Z,0.85
2018-01-29T12:05:39.208Z,0.60
2018-01-29T12:06:44.952Z,0.70
2018-01-29T12:07:52.180Z,0.70
2018-01-29T12:08:57.936Z,0.70
2018-01-29T12:10:03.661Z,0.60
2018-01-29T12:11:09.457Z,0.80
2018-01-29T12:12:15.275Z,0.85
2018-01-29T12:13:20.784Z,0.70
2018-01-29T12:14:26.539Z,0.70
2018-01-29T12:15:32.303Z,0.90
2018-01-29T12:16:38.074Z,0.70
2018-01-29T12:17:44.574Z,0.90
2018-01-29T12:18:50.325Z,0.70
2018-01-29T12:19:56.083Z,1.00
2018-01-29T12:21:01.902Z,0.70
2018-01-29T12:22:07.669Z,0.70
2018-01-29T12:23:13.418Z,1.00
2018-01-29T12:24:19.481Z,0.90
2018-01-29T12:25:26.013Z,0.80
2018-01-29T12:26:31.748Z,1.00
2018-01-29T12:27:37.528Z,0.80
2018-01-29T12:28:43.279Z,1.10
2018-01-29T12:29:49.864Z,0.93
2018-01-29T12:30:55.617Z,1.00
2018-01-29T12:32:01.795Z,0.98
2018-01-29T12:33:07.651Z,0.90
2018-01-29T12:34:13.501Z,0.70
2018-01-29T12:35:19.221Z,0.80
2018-01-29T12:36:24.754Z,0.80
2018-01-29T12:37:30.498Z,0.80
2018-01-29T12:38:36.283Z,0.90
2018-01-29T12:39:42.794Z,0.70
2018-01-29T12:40:48.548Z,0.90
2018-01-29T12:41:54.314Z,0.70
2018-01-29T12:43:00.060Z,1.00
2018-01-29T12:44:06.598Z,0.80
2018-01-29T12:45:12.649Z,0.80
2018-01-29T12:46:18.391Z,0.82
2018-01-29T12:47:24.145Z,1.10
2018-01-29T12:48:29.936Z,0.80
2018-01-29T12:49:35.735Z,0.80
2018-01-29T12:50:42.240Z,1.00
2018-01-29T12:51:47.960Z,0.73
2018-01-29T12:52:53.710Z,0.70
2018-01-29T12:54:00.210Z,0.90
2018-01-29T12:55:05.983Z,0.80
2018-01-29T12:56:11.969Z,0.68
2018-01-29T12:57:17.747Z,0.82
2018-01-29T12:58:23.522Z,0.80
2018-01-29T12:59:29.273Z,1.42
2018-01-29T13:00:35.048Z,0.90
2018-01-29T13:01:40.786Z,0.82
2018-01-29T13:02:46.523Z,0.90
2018-01-29T13:03:52.687Z,1.27
2018-01-29T13:04:59.963Z,1.10
2018-01-29T13:06:05.757Z,0.90
2018-01-29T13:07:12.273Z,1.05
2018-01-29T13:08:18.013Z,1.20
2018-01-29T13:09:23.732Z,1.05
2018-01-29T13:10:30.245Z,0.90
2018-01-29T13:11:36.782Z,0.98
2018-01-29T13:12:42.529Z,1.10
2018-01-29T13:13:48.267Z,0.80
2018-01-29T13:14:54.024Z,1.55
2018-01-29T13:16:00.606Z,1.00
2018-01-29T13:17:06.435Z,1.10
2018-01-29T13:18:12.920Z,1.17
2018-01-29T13:19:18.648Z,1.40
2018-01-29T13:20:24.394Z,1.08
2018-01-29T13:21:30.434Z,0.95
2018-01-29T13:22:36.973Z,0.93
2018-01-29T13:23:43.478Z,1.00
2018-01-29T13:24:49.246Z,1.40
2018-01-29T13:25:54.997Z,1.20
2018-01-29T13:27:00.760Z,0.90
2018-01-29T13:28:07.322Z,1.33
2018-01-29T13:29:13.835Z,1.45
2018-01-29T13:30:19.589Z,1.10
2018-01-29T13:31:25.367Z,1.62
2018-01-29T13:32:31.876Z,1.30
2018-01-29T13:33:37.634Z,0.90
2018-01-29T13:34:43.426Z,1.23
2018-01-29T13:35:48.847Z,1.00
2018-01-29T13:36:55.416Z,0.90
2018-01-29T13:38:02.412Z,0.98
2018-01-29T13:39:08.166Z,1.30
2018-01-29T13:40:14.020Z,0.80
2018-01-29T13:41:19.780Z,1.00
2018-01-29T13:42:25.566Z,1.00
2018-01-29T13:43:31.125Z,1.20
2018-01-29T13:44:36.886Z,1.00
2018-01-29T13:45:42.677Z,1.00
2018-01-29T13:46:48.423Z,0.93
2018-01-29T13:47:54.225Z,1.05
2018-01-29T13:48:59.971Z,1.08
2018-01-29T13:50:05.734Z,1.20
2018-01-29T13:51:12.091Z,1.00
2018-01-29T13:52:18.603Z,1.20
2018-01-29T13:53:24.332Z,1.12
2018-01-29T13:54:30.069Z,1.05
2018-01-29T13:55:35.851Z,1.10
2018-01-29T13:56:42.616Z,0.90
2018-01-29T13:57:48.360Z,1.20
2018-01-29T13:58:54.117Z,1.00
2018-01-29T14:00:00.694Z,1.08
2018-01-29T14:01:06.511Z,1.10
2018-01-29T14:02:12.315Z,0.90
2018-01-29T14:03:18.242Z,1.23
2018-01-29T14:04:23.988Z,1.58
2018-01-29T14:05:29.738Z,1.70
2018-01-29T14:06:35.492Z,1.15
2018-01-29T14:07:41.221Z,1.20
2018-01-29T14:08:47.005Z,0.93
2018-01-29T14:09:52.749Z,1.05
2018-01-29T14:10:59.251Z,1.10
2018-01-29T14:12:05.002Z,1.52
2018-01-29T14:13:10.769Z,0.90
2018-01-29T14:14:16.506Z,1.10
2018-01-29T14:15:22.272Z,1.42
2018-01-29T14:16:28.580Z,0.80
2018-01-29T14:17:34.354Z,1.30
2018-01-29T14:18:40.087Z,1.00
2018-01-29T14:19:45.814Z,1.23
2018-01-29T14:20:51.548Z,1.10
2018-01-29T14:21:57.331Z,1.23
2018-01-29T14:23:03.111Z,1.50
2018-01-29T14:24:08.855Z,1.17
2018-01-29T14:25:14.585Z,1.50
2018-01-29T14:26:20.337Z,1.10
2018-01-29T14:27:26.103Z,1.20
2018-01-29T14:28:31.861Z,1.25
2018-01-29T14:29:37.593Z,0.95
2018-01-29T14:30:43.346Z,1.10
2018-01-29T14:31:49.086Z,1.37
2018-01-29T14:32:54.839Z,1.00
2018-01-29T14:34:00.276Z,1.15
2018-01-29T14:35:06.028Z,1.15
2018-01-29T14:36:12.517Z,1.23
2018-01-29T14:37:18.294Z,1.25
2018-01-29T14:38:24.326Z,1.00
2018-01-29T14:39:30.125Z,1.42
2018-01-29T14:40:36.638Z,1.10
2018-01-29T14:41:42.157Z,1.08